Time;durP1;ratioP1;P1;durP2;ratioP2;P2;SDS_P1;SDS_P2;PMS_P1;PMS_P2;Temp;Humidity;BMP_temperature;BMP_pressure;BME280_temperature;BME280_humidity;BME280_pressure;Samples;Min_cycle;Max_cycle;Signal;HPM_P1;HPM_P2
2021/01/31 00:01:04;;;;;;;5.35;3.58;;;5.60;99.90;;;;;;4949243;29;20134;-81
2021/01/31 00:03:31;;;;;;;5.05;3.42;;;5.50;99.90;;;;;;4945991;29;20051;-82
2021/01/31 00:06:03;;;;;;;4.95;3.20;;;5.50;99.90;;;;;;4940909;29;20134;-83
2021/01/31 00:08:30;;;;;;;5.20;3.50;;;5.60;99.90;;;;;;4945732;29;20054;-82
2021/01/31 00:10:58;;;;;;;5.05;3.53;;;5.60;99.90;;;;;;4943599;29;20044;-81
2021/01/31 00:13:28;;;;;;;5.25;3.60;;;5.60;99.90;;;;;;4927499;29;20134;-83
2021/01/31 00:15:58;;;;;;;5.07;3.67;;;5.50;99.90;;;;;;4952693;29;20048;-82
2021/01/31 00:18:27;;;;;;;5.10;3.20;;;5.50;99.90;;;;;;4946109;29;20047;-81
2021/01/31 00:20:57;;;;;;;4.85;3.45;;;5.60;99.90;;;;;;4942461;29;20062;-81
2021/01/31 00:23:26;;;;;;;5.10;3.30;;;5.50;99.90;;;;;;4951540;28;20055;-81
2021/01/31 00:25:52;;;;;;;5.95;3.60;;;5.50;99.90;;;;;;4939787;29;20067;-82
2021/01/31 00:28:22;;;;;;;6.55;4.00;;;5.50;99.90;;;;;;4946783;29;20054;-81
2021/01/31 00:30:51;;;;;;;5.53;3.72;;;5.50;99.90;;;;;;4944909;29;20132;-81
2021/01/31 00:33:20;;;;;;;5.45;3.58;;;5.50;99.90;;;;;;4925597;29;20051;-81
2021/01/31 00:35:48;;;;;;;5.28;3.67;;;5.40;99.90;;;;;;4926080;29;20482;-82
2021/01/31 00:38:17;;;;;;;7.07;4.00;;;5.40;99.90;;;;;;4950224;29;20047;-81
2021/01/31 00:40:45;;;;;;;5.85;3.90;;;5.40;99.90;;;;;;4952734;29;20052;-81
2021/01/31 00:43:13;;;;;;;6.18;4.20;;;5.30;99.90;;;;;;4930731;29;20130;-81
2021/01/31 00:45:40;;;;;;;6.50;3.90;;;5.30;99.90;;;;;;4945546;29;20061;-81
2021/01/31 00:48:08;;;;;;;5.85;4.20;;;5.30;99.90;;;;;;4939960;29;20059;-81
2021/01/31 00:50:37;;;;;;;6.10;4.38;;;5.30;99.90;;;;;;4950503;29;20465;-81
2021/01/31 00:53:04;;;;;;;6.00;4.13;;;5.20;99.90;;;;;;4940756;29;20508;-81
2021/01/31 00:55:31;;;;;;;6.57;4.50;;;5.30;99.90;;;;;;4945996;29;20409;-82
2021/01/31 00:57:58;;;;;;;6.60;4.53;;;5.30;99.90;;;;;;4931471;29;20186;-82
2021/01/31 01:00:28;;;;;;;6.40;4.70;;;5.20;99.90;;;;;;4939988;29;20477;-82
2021/01/31 01:02:56;;;;;;;8.90;4.80;;;5.20;99.90;;;;;;4949312;29;20115;-82
2021/01/31 01:05:26;;;;;;;7.00;5.13;;;5.20;99.90;;;;;;4943880;29;20197;-82
2021/01/31 01:07:54;;;;;;;6.80;4.75;;;5.20;99.90;;;;;;4955821;28;20130;-82
2021/01/31 01:10:24;;;;;;;7.45;5.30;;;5.10;99.90;;;;;;4938878;29;20051;-82
2021/01/31 01:12:51;;;;;;;8.00;5.03;;;5.20;99.90;;;;;;4940950;29;20039;-82
2021/01/31 01:15:21;;;;;;;8.75;5.18;;;5.20;99.90;;;;;;4956702;29;20051;-82
2021/01/31 01:17:48;;;;;;;7.47;5.20;;;5.20;99.90;;;;;;4945074;29;20432;-82
2021/01/31 01:20:15;;;;;;;7.20;5.20;;;5.30;99.90;;;;;;4950308;29;20054;-82
2021/01/31 01:22:43;;;;;;;7.55;5.53;;;5.30;99.90;;;;;;4938878;29;20055;-82
2021/01/31 01:25:13;;;;;;;8.88;5.25;;;5.30;99.90;;;;;;4939130;28;20138;-81
2021/01/31 01:27:40;;;;;;;6.63;4.72;;;5.20;99.90;;;;;;4950097;29;20047;-81
2021/01/31 01:30:10;;;;;;;7.68;5.47;;;5.20;99.90;;;;;;4940491;29;20126;-82
2021/01/31 01:32:38;;;;;;;7.97;5.95;;;5.20;99.90;;;;;;4936841;29;20098;-81
2021/01/31 01:35:06;;;;;;;6.97;5.35;;;5.20;99.90;;;;;;4940147;29;20046;-82
2021/01/31 01:37:33;;;;;;;7.55;5.20;;;5.20;99.90;;;;;;4943870;29;20465;-82
2021/01/31 01:40:00;;;;;;;7.97;5.68;;;5.20;99.90;;;;;;4947361;29;20485;-82
2021/01/31 01:42:27;;;;;;;8.88;6.10;;;5.20;99.90;;;;;;4937172;29;20194;-82
2021/01/31 01:44:53;;;;;;;7.47;5.50;;;5.30;99.90;;;;;;4948913;29;20135;-81
2021/01/31 01:47:24;;;;;;;8.43;5.68;;;5.20;99.90;;;;;;4942456;29;20478;-82
2021/01/31 01:49:57;;;;;;;6.85;5.18;;;5.20;99.90;;;;;;4953474;29;20078;-82
2021/01/31 01:52:32;;;;;;;7.90;5.47;;;5.30;99.90;;;;;;4952689;29;20051;-82
2021/01/31 01:55:04;;;;;;;;;;;5.30;99.90;;;;;;4948744;29;20071;-82
2021/01/31 01:57:37;;;;;;;9.00;5.68;;;5.30;99.90;;;;;;4943116;29;20423;-81
2021/01/31 02:00:08;;;;;;;8.52;5.80;;;5.30;99.90;;;;;;4951410;29;20413;-82
2021/01/31 02:02:39;;;;;;;8.63;5.93;;;5.30;99.90;;;;;;4943447;29;20401;-82
2021/01/31 02:05:13;;;;;;;8.88;5.95;;;5.30;99.90;;;;;;4947177;29;20413;-83
2021/01/31 02:07:39;;;;;;;9.88;6.30;;;5.20;99.90;;;;;;4934161;29;20079;-82
2021/01/31 02:10:10;;;;;;;8.73;6.10;;;5.20;99.90;;;;;;4947912;29;20047;-82
2021/01/31 02:12:37;;;;;;;9.07;6.15;;;5.20;99.90;;;;;;4936727;29;20461;-81
2021/01/31 02:15:07;;;;;;;9.20;5.97;;;5.10;99.90;;;;;;4946890;29;20508;-81
2021/01/31 02:17:52;;;;;;;8.65;6.22;;;5.10;99.90;;;;;;4943109;29;20089;-81
2021/01/31 02:21:14;;;;;;;9.95;6.10;;;5.20;99.90;;;;;;4937001;29;20455;-80
2021/01/31 02:24:40;;;;;;;8.48;5.90;;;5.20;99.90;;;;;;4942922;29;20059;-80
2021/01/31 02:28:08;;;;;;;9.38;5.78;;;5.20;99.90;;;;;;4931099;29;20134;-81
2021/01/31 02:31:29;;;;;;;9.27;6.28;;;5.20;99.90;;;;;;4936514;29;20058;-82
2021/01/31 02:34:02;;;;;;;8.50;6.00;;;5.20;99.90;;;;;;4940281;29;20107;-82
2021/01/31 02:36:44;;;;;;;9.18;6.00;;;5.10;99.90;;;;;;4948924;29;20054;-82
2021/01/31 02:39:25;;;;;;;8.88;6.57;;;5.20;99.90;;;;;;4950528;29;20495;-82
2021/01/31 02:42:16;;;;;;;8.80;6.20;;;5.20;99.90;;;;;;4944821;29;20130;-82
2021/01/31 02:44:53;;;;;;;9.23;6.40;;;5.20;99.90;;;;;;4920428;29;20134;-82
2021/01/31 02:47:23;;;;;;;9.30;6.05;;;5.20;99.90;;;;;;4944931;29;20050;-82
2021/01/31 02:49:58;;;;;;;8.70;6.35;;;5.20;99.90;;;;;;4944934;29;20134;-82
2021/01/31 02:52:30;;;;;;;8.85;6.20;;;5.20;99.90;;;;;;4950100;29;20074;-81
2021/01/31 02:55:04;;;;;;;9.45;6.68;;;5.10;99.90;;;;;;4938001;29;20150;-82
2021/01/31 02:57:37;;;;;;;10.50;6.07;;;5.20;99.90;;;;;;4943082;29;20052;-82
2021/01/31 03:00:11;;;;;;;8.60;6.22;;;5.10;99.90;;;;;;4946894;29;20055;-81
2021/01/31 03:02:48;;;;;;;8.68;6.32;;;5.10;99.90;;;;;;4938232;29;20266;-81
2021/01/31 03:05:20;;;;;;;10.60;6.95;;;5.20;99.90;;;;;;4947295;29;20043;-82
2021/01/31 03:07:55;;;;;;;12.02;7.25;;;5.10;99.90;;;;;;4946539;29;20501;-82
2021/01/31 03:10:26;;;;;;;9.38;6.53;;;5.10;99.90;;;;;;4938757;29;20164;-83
2021/01/31 03:12:58;;;;;;;9.38;6.75;;;5.00;99.90;;;;;;4939720;29;20134;-83
2021/01/31 03:15:28;;;;;;;10.73;7.18;;;5.00;99.90;;;;;;4946212;29;20134;-83
2021/01/31 03:18:01;;;;;;;9.23;6.57;;;5.00;99.90;;;;;;4936466;29;20589;-82
2021/01/31 03:20:32;;;;;;;10.90;6.97;;;5.00;99.90;;;;;;4942363;29;20048;-83
2021/01/31 03:23:07;;;;;;;10.52;6.82;;;4.90;99.90;;;;;;4948193;29;20051;-82
2021/01/31 03:25:41;;;;;;;9.38;6.60;;;5.00;99.90;;;;;;4938370;29;20052;-82
2021/01/31 03:28:07;;;;;;;9.52;6.72;;;4.90;99.90;;;;;;4940405;29;20573;-83
2021/01/31 03:30:34;;;;;;;10.45;7.22;;;5.00;99.90;;;;;;4951569;28;20043;-83
2021/01/31 03:33:05;;;;;;;9.38;6.80;;;4.80;99.90;;;;;;4944256;29;20053;-82
2021/01/31 03:35:38;;;;;;;10.30;7.00;;;4.80;99.90;;;;;;4941996;29;20051;-82
2021/01/31 03:38:14;;;;;;;9.75;6.80;;;4.80;99.90;;;;;;4947492;29;20107;-80
2021/01/31 03:40:44;;;;;;;10.02;7.00;;;4.80;99.90;;;;;;4961389;29;20071;-83
2021/01/31 03:43:10;;;;;;;10.30;7.40;;;4.80;99.90;;;;;;4959487;29;20051;-83
2021/01/31 03:45:44;;;;;;;9.98;6.95;;;4.80;99.90;;;;;;4951141;29;20138;-83
2021/01/31 03:48:15;;;;;;;10.85;7.20;;;4.80;99.90;;;;;;4948309;29;20044;-83
2021/01/31 03:50:44;;;;;;;10.70;7.10;;;4.80;99.90;;;;;;4949208;29;20134;-83
2021/01/31 03:53:12;;;;;;;9.52;6.88;;;4.80;99.90;;;;;;4942958;29;20058;-82
2021/01/31 03:55:41;;;;;;;10.18;7.05;;;4.80;99.90;;;;;;4954006;29;20051;-83
2021/01/31 03:58:12;;;;;;;9.38;6.30;;;4.80;99.90;;;;;;4947782;29;20139;-82
2021/01/31 04:00:48;;;;;;;10.52;6.93;;;4.80;99.90;;;;;;4946833;29;20466;-83
2021/01/31 04:03:18;;;;;;;11.25;6.75;;;4.90;99.90;;;;;;4949500;29;20051;-81
2021/01/31 04:05:54;;;;;;;11.25;7.28;;;4.80;99.90;;;;;;4940098;29;20047;-82
2021/01/31 04:08:21;;;;;;;10.32;7.15;;;4.80;99.90;;;;;;4947691;29;20078;-82
2021/01/31 04:10:48;;;;;;;10.18;7.13;;;4.80;99.90;;;;;;4937516;29;20138;-83
2021/01/31 04:13:15;;;;;;;11.85;7.28;;;4.90;99.90;;;;;;4951485;29;20047;-83
2021/01/31 04:15:45;;;;;;;10.13;7.38;;;4.90;99.90;;;;;;4939380;29;20486;-82
2021/01/31 04:18:14;;;;;;;11.02;7.45;;;5.00;99.90;;;;;;4940829;29;20454;-82
2021/01/31 04:20:41;;;;;;;11.27;7.65;;;5.00;99.90;;;;;;4951668;29;20504;-82
2021/01/31 04:23:10;;;;;;;10.00;7.38;;;5.00;99.90;;;;;;4949258;29;20147;-82
2021/01/31 04:25:37;;;;;;;12.20;7.30;;;5.00;99.90;;;;;;4938946;29;20062;-82
2021/01/31 04:28:09;;;;;;;10.77;7.22;;;5.00;99.90;;;;;;4949468;29;20047;-82
2021/01/31 04:30:39;;;;;;;10.68;7.43;;;5.00;99.90;;;;;;4910943;29;20043;-82
2021/01/31 04:33:05;;;;;;;10.75;7.55;;;5.20;99.90;;;;;;4949669;29;20180;-82
2021/01/31 04:35:32;;;;;;;10.70;7.25;;;5.10;99.90;;;;;;4939849;29;20131;-82
2021/01/31 04:37:59;;;;;;;10.48;7.40;;;5.00;99.90;;;;;;4920302;29;20062;-82
2021/01/31 04:40:28;;;;;;;9.88;6.80;;;5.00;99.90;;;;;;4951558;29;20138;-82
2021/01/31 04:42:55;;;;;;;9.60;6.68;;;5.10;99.90;;;;;;4922756;29;20493;-82
2021/01/31 04:45:23;;;;;;;9.93;6.93;;;5.00;99.90;;;;;;4953494;29;20043;-83
2021/01/31 04:48:03;;;;;;;10.88;7.00;;;5.00;99.90;;;;;;4943204;29;20059;-83
2021/01/31 04:50:36;;;;;;;10.18;6.50;;;5.00;99.90;;;;;;4951169;29;20074;-82
2021/01/31 04:53:17;;;;;;;11.23;7.80;;;5.00;99.90;;;;;;4940819;29;20062;-82
2021/01/31 04:56:07;;;;;;;10.13;7.00;;;5.00;99.90;;;;;;4953310;29;20051;-81
2021/01/31 04:58:37;;;;;;;10.70;7.20;;;5.00;99.90;;;;;;4954134;29;20054;-81
2021/01/31 05:01:09;;;;;;;11.23;7.60;;;5.00;99.90;;;;;;4954776;29;20137;-80
2021/01/31 05:03:45;;;;;;;10.35;6.70;;;5.00;99.90;;;;;;4954033;29;20051;-80
2021/01/31 05:06:15;;;;;;;10.70;7.32;;;5.10;99.90;;;;;;4942161;29;20058;-81
2021/01/31 05:08:45;;;;;;;11.85;7.45;;;5.20;99.90;;;;;;4961665;29;20446;-81
2021/01/31 05:11:23;;;;;;;10.57;7.22;;;5.10;99.90;;;;;;4942131;29;20051;-82
2021/01/31 05:13:58;;;;;;;10.23;7.43;;;5.10;99.90;;;;;;4942901;29;20431;-82
2021/01/31 05:16:26;;;;;;;11.82;7.63;;;5.10;99.90;;;;;;4950451;29;20055;-81
2021/01/31 05:19:02;;;;;;;9.98;6.97;;;5.10;99.90;;;;;;4940244;29;20127;-81
2021/01/31 05:21:31;;;;;;;11.73;7.45;;;5.10;99.90;;;;;;4946107;29;20087;-82
2021/01/31 05:24:02;;;;;;;11.27;7.40;;;5.10;99.90;;;;;;4958403;29;20142;-81
2021/01/31 05:26:35;;;;;;;10.15;7.20;;;5.10;99.90;;;;;;4949733;29;20058;-82
2021/01/31 05:29:05;;;;;;;13.55;8.02;;;5.10;99.90;;;;;;4958677;29;20133;-82
2021/01/31 05:31:36;;;;;;;11.07;7.43;;;5.00;99.90;;;;;;4944703;29;20429;-81
2021/01/31 05:34:04;;;;;;;11.05;7.32;;;5.10;99.90;;;;;;4948087;29;20566;-81
2021/01/31 05:36:33;;;;;;;12.05;7.90;;;5.10;99.90;;;;;;4937968;29;20055;-81
2021/01/31 05:39:01;;;;;;;10.77;7.45;;;5.10;99.90;;;;;;4948711;29;20126;-81
2021/01/31 05:41:43;;;;;;;11.95;8.02;;;5.10;99.90;;;;;;4943294;29;20059;-81
2021/01/31 05:44:24;;;;;;;10.95;7.45;;;5.10;99.90;;;;;;4939586;29;20079;-80
2021/01/31 05:46:53;;;;;;;11.82;8.02;;;5.00;99.90;;;;;;4936331;29;20055;-80
2021/01/31 05:49:43;;;;;;;12.43;7.90;;;5.00;99.90;;;;;;4943555;29;20062;-79
2021/01/31 05:52:31;;;;;;;12.30;7.90;;;5.00;99.90;;;;;;4935546;29;20063;-79
2021/01/31 05:54:59;;;;;;;11.52;8.18;;;5.00;99.90;;;;;;4938667;29;20043;-80
2021/01/31 05:57:30;;;;;;;13.10;8.10;;;5.00;99.90;;;;;;4945143;29;20055;-79
2021/01/31 05:59:59;;;;;;;14.45;8.32;;;4.90;99.90;;;;;;4947031;29;20113;-80
2021/01/31 06:02:28;;;;;;;13.40;7.53;;;4.90;99.90;;;;;;4937354;29;20139;-80
2021/01/31 06:05:16;;;;;;;12.02;8.18;;;4.90;99.90;;;;;;4949466;29;20054;-79
2021/01/31 06:07:45;;;;;;;12.13;7.65;;;4.90;99.90;;;;;;4945091;29;20082;-80
2021/01/31 06:10:15;;;;;;;13.02;8.35;;;4.80;99.90;;;;;;4938722;29;20051;-80
2021/01/31 06:12:45;;;;;;;11.40;8.20;;;4.80;99.90;;;;;;4950883;29;20055;-78
2021/01/31 06:15:23;;;;;;;13.48;8.30;;;4.50;99.90;;;;;;4946560;29;20044;-76
2021/01/31 06:17:56;;;;;;;14.32;8.77;;;4.40;99.90;;;;;;4945726;29;20057;-77
2021/01/31 06:20:29;;;;;;;11.45;7.90;;;4.40;99.90;;;;;;4938712;29;20075;-80
2021/01/31 06:22:56;;;;;;;13.07;8.57;;;4.50;99.90;;;;;;4926371;29;20057;-80
2021/01/31 06:25:38;;;;;;;13.93;8.50;;;4.60;99.90;;;;;;4952719;29;20063;-81
2021/01/31 06:28:29;;;;;;;11.82;8.07;;;4.60;99.90;;;;;;4952460;29;20059;-80
2021/01/31 06:31:10;;;;;;;12.82;8.20;;;4.60;99.90;;;;;;4944995;28;20110;-81
2021/01/31 06:33:40;;;;;;;12.23;7.70;;;4.70;99.90;;;;;;4952653;29;20055;-80
2021/01/31 06:36:17;;;;;;;10.88;7.43;;;4.80;99.90;;;;;;4953410;28;20054;-87
2021/01/31 06:38:55;;;;;;;10.32;7.10;;;4.70;99.90;;;;;;4953122;29;20063;-81
2021/01/31 06:41:43;;;;;;;10.80;7.32;;;4.90;99.90;;;;;;4949617;29;20492;-80
2021/01/31 06:44:19;;;;;;;11.43;7.72;;;4.80;99.90;;;;;;4949520;29;20135;-81
2021/01/31 06:47:08;;;;;;;11.23;7.50;;;4.80;99.90;;;;;;4952032;28;20141;-78
2021/01/31 06:49:50;;;;;;;10.75;7.15;;;4.70;99.90;;;;;;4934189;29;20083;-78
2021/01/31 06:52:27;;;;;;;12.02;7.03;;;4.80;99.90;;;;;;4952363;28;20061;-78
2021/01/31 06:55:26;;;;;;;11.05;7.40;;;4.90;99.90;;;;;;4937791;29;20471;-78
2021/01/31 06:58:34;;;;;;;11.75;7.20;;;4.90;99.90;;;;;;4953902;29;20154;-78
2021/01/31 07:01:58;;;;;;;10.38;7.28;;;4.90;99.90;;;;;;4939096;28;20126;-78
2021/01/31 07:05:03;;;;;;;10.05;7.22;;;4.90;99.90;;;;;;4931804;28;20501;-78
2021/01/31 07:08:21;;;;;;;13.05;7.65;;;4.80;99.90;;;;;;4956592;29;20149;-79
2021/01/31 07:11:34;;;;;;;10.07;6.95;;;4.80;99.90;;;;;;4956313;28;20157;-79
2021/01/31 07:14:27;;;;;;;11.30;6.83;;;4.80;99.90;;;;;;4941240;29;20043;-78
2021/01/31 07:17:06;;;;;;;11.82;7.40;;;5.00;99.90;;;;;;4942935;29;20079;-77
2021/01/31 07:19:40;;;;;;;10.25;7.25;;;5.00;99.90;;;;;;4955515;29;20055;-78
2021/01/31 07:22:14;;;;;;;9.75;7.00;;;5.00;99.90;;;;;;4950147;28;20143;-78
2021/01/31 07:24:51;;;;;;;9.77;6.82;;;5.00;99.90;;;;;;4961104;29;20083;-79
2021/01/31 07:27:23;;;;;;;10.75;7.10;;;5.10;99.90;;;;;;4956510;29;20081;-78
2021/01/31 07:30:03;;;;;;;10.25;6.95;;;5.10;99.90;;;;;;4956166;29;20079;-79
2021/01/31 07:32:54;;;;;;;10.88;7.07;;;5.20;99.90;;;;;;4938710;29;20081;-78
2021/01/31 07:35:25;;;;;;;9.32;6.45;;;5.20;99.90;;;;;;4947272;29;20126;-79
2021/01/31 07:38:05;;;;;;;9.40;6.90;;;5.20;99.90;;;;;;4954609;28;20039;-79
2021/01/31 07:40:32;;;;;;;8.90;6.15;;;5.10;99.90;;;;;;4958728;29;20110;-78
2021/01/31 07:43:00;;;;;;;9.25;6.70;;;5.00;99.90;;;;;;4956148;29;20126;-79
2021/01/31 07:45:27;;;;;;;9.35;5.85;;;5.00;99.90;;;;;;4955303;29;20055;-80
2021/01/31 07:48:35;;;;;;;10.13;6.60;;;5.00;99.90;;;;;;4955072;29;20047;-79
2021/01/31 07:51:03;;;;;;;9.35;6.50;;;5.00;99.90;;;;;;4946296;29;20105;-79
2021/01/31 07:53:34;;;;;;;9.15;6.50;;;5.10;99.90;;;;;;4955543;29;20137;-80
2021/01/31 07:56:29;;;;;;;9.15;6.13;;;5.20;99.90;;;;;;4942896;29;20142;-79
2021/01/31 07:58:58;;;;;;;9.55;6.63;;;5.20;99.90;;;;;;4948792;29;20052;-79
2021/01/31 08:01:53;;;;;;;9.32;6.45;;;5.20;99.90;;;;;;4952884;29;20121;-78
2021/01/31 08:04:28;;;;;;;8.98;6.35;;;5.30;99.90;;;;;;4910319;29;20051;-76
2021/01/31 08:06:57;;;;;;;9.70;6.25;;;5.30;99.90;;;;;;4950318;29;20186;-79
2021/01/31 08:09:55;;;;;;;9.02;6.78;;;5.30;99.90;;;;;;4948510;29;20102;-80
2021/01/31 08:12:59;;;;;;;9.68;6.25;;;5.30;99.90;;;;;;4951649;29;20138;-80
2021/01/31 08:15:42;;;;;;;;;;;5.40;99.90;;;;;;4955402;29;20134;-79
2021/01/31 08:18:17;;;;;;;9.40;6.20;;;5.40;99.90;;;;;;4960862;29;19930;-79
2021/01/31 08:20:52;;;;;;;9.05;5.93;;;5.40;99.90;;;;;;4944861;29;20138;-79
2021/01/31 08:23:54;;;;;;;10.05;6.28;;;5.40;99.90;;;;;;4940266;29;20122;-79
2021/01/31 08:26:46;;;;;;;11.32;6.90;;;5.50;99.90;;;;;;4936050;29;20094;-77
2021/01/31 08:29:33;;;;;;;8.75;6.03;;;5.50;99.90;;;;;;4947824;29;20052;-79
2021/01/31 08:32:14;;;;;;;17.98;10.07;;;5.50;99.90;;;;;;4955174;29;20054;-76
2021/01/31 08:35:24;;;;;;;15.55;9.40;;;5.50;99.90;;;;;;4955942;28;20149;-80
2021/01/31 08:37:52;;;;;;;12.43;7.78;;;5.50;99.90;;;;;;4943954;29;20055;-80
2021/01/31 08:40:23;;;;;;;9.32;6.40;;;5.50;99.90;;;;;;4952191;28;20067;-80
2021/01/31 08:42:58;;;;;;;8.27;5.85;;;5.50;99.90;;;;;;4950914;29;20118;-79
2021/01/31 08:45:44;;;;;;;8.80;6.03;;;5.50;99.90;;;;;;4951681;29;20126;-79
2021/01/31 08:48:25;;;;;;;8.77;5.93;;;5.50;99.90;;;;;;4950123;29;20078;-80
2021/01/31 08:51:04;;;;;;;9.23;5.95;;;5.50;99.90;;;;;;4948731;29;20139;-80
2021/01/31 08:53:33;;;;;;;9.73;6.15;;;5.60;99.90;;;;;;4948451;29;20054;-80
2021/01/31 08:56:19;;;;;;;8.98;5.78;;;5.60;99.90;;;;;;4953280;29;20047;-78
2021/01/31 08:58:47;;;;;;;8.27;5.90;;;5.60;99.90;;;;;;4936636;29;20051;-79
2021/01/31 09:01:14;;;;;;;8.93;6.38;;;5.80;99.90;;;;;;4952886;29;20126;-79
2021/01/31 09:03:43;;;;;;;9.13;6.20;;;5.70;99.90;;;;;;4954242;29;20047;-81
2021/01/31 09:06:10;;;;;;;8.88;5.88;;;5.80;99.90;;;;;;4954383;29;20054;-81
2021/01/31 09:08:38;;;;;;;7.68;5.80;;;5.80;99.90;;;;;;4954045;29;20549;-80
2021/01/31 09:11:06;;;;;;;8.68;5.75;;;5.90;99.90;;;;;;4941166;28;20077;-82
2021/01/31 09:13:35;;;;;;;9.43;6.07;;;6.00;99.90;;;;;;4938214;29;20490;-79
2021/01/31 09:16:12;;;;;;;9.65;6.18;;;5.90;99.90;;;;;;4953469;29;20058;-80
2021/01/31 09:18:39;;;;;;;9.02;6.18;;;5.90;99.90;;;;;;4954144;29;20055;-81
2021/01/31 09:21:24;;;;;;;9.10;6.53;;;6.00;99.90;;;;;;4937149;29;20492;-81
2021/01/31 09:23:51;;;;;;;;;;;6.00;99.90;;;;;;4954093;29;20765;-80
2021/01/31 09:26:18;;;;;;;9.90;6.72;;;6.00;99.90;;;;;;4952393;29;19930;-80
2021/01/31 09:28:44;;;;;;;9.95;6.57;;;6.00;99.90;;;;;;4952306;28;20101;-78
2021/01/31 09:31:15;;;;;;;9.20;6.40;;;6.00;99.90;;;;;;4952442;28;20450;-78
2021/01/31 09:33:44;;;;;;;9.30;6.63;;;6.00;99.90;;;;;;4962660;28;20134;-77
2021/01/31 09:36:20;;;;;;;9.45;6.68;;;6.00;99.90;;;;;;4935506;29;20050;-78
2021/01/31 09:38:48;;;;;;;9.57;6.47;;;6.10;99.90;;;;;;4946981;29;20547;-76
2021/01/31 09:49:09;;;;;;;8.98;5.32;;;6.30;99.90;;;;;;4266618;22;20091;-81
2021/01/31 09:51:36;;;;;;;8.80;5.50;;;6.30;99.90;;;;;;4914578;29;20044;-83
2021/01/31 09:54:15;;;;;;;9.25;5.50;;;6.30;99.90;;;;;;4914600;29;20086;-83
2021/01/31 09:56:43;;;;;;;7.60;5.20;;;6.40;99.90;;;;;;4914661;29;20091;-77
2021/01/31 09:59:24;;;;;;;9.18;5.63;;;6.40;99.90;;;;;;4930803;29;20083;-80
2021/01/31 10:01:53;;;;;;;8.43;5.63;;;6.30;99.90;;;;;;4931027;29;20048;-78
2021/01/31 10:04:25;;;;;;;8.25;5.07;;;6.40;99.90;;;;;;4932414;29;20416;-77
2021/01/31 10:09:50;;;;;;;9.77;6.05;;;6.30;99.90;;;;;;4947517;29;20047;-77
2021/01/31 10:12:30;;;;;;;8.95;6.25;;;6.40;99.90;;;;;;4950535;29;20062;-76
2021/01/31 10:14:58;;;;;;;10.90;7.22;;;6.40;99.90;;;;;;4952465;29;20138;-76
2021/01/31 10:17:41;;;;;;;9.63;6.40;;;6.50;99.90;;;;;;4934923;29;20073;-76
2021/01/31 10:20:34;;;;;;;9.88;6.53;;;6.50;99.90;;;;;;4952616;29;20079;-78
2021/01/31 10:23:10;;;;;;;10.77;7.15;;;6.50;99.40;;;;;;4950643;29;20051;-78
2021/01/31 10:25:40;;;;;;;12.35;7.85;;;6.50;99.60;;;;;;4933170;29;20139;-76
2021/01/31 10:28:09;;;;;;;11.15;7.97;;;6.50;99.70;;;;;;4932652;29;20059;-78
2021/01/31 10:30:44;;;;;;;10.98;7.40;;;6.50;99.90;;;;;;4933243;29;20055;-78
2021/01/31 10:33:40;;;;;;;11.32;7.03;;;6.40;99.90;;;;;;4916360;29;20119;-76
2021/01/31 10:36:25;;;;;;;10.88;7.20;;;6.40;99.90;;;;;;4940127;29;20078;-76
2021/01/31 10:38:54;;;;;;;12.98;8.23;;;6.40;99.90;;;;;;4942351;29;20099;-79
2021/01/31 10:41:21;;;;;;;11.10;7.15;;;6.40;99.90;;;;;;4932876;29;20139;-75
2021/01/31 10:44:01;;;;;;;10.07;7.03;;;6.50;99.90;;;;;;4932851;29;20131;-82
2021/01/31 10:46:29;;;;;;;10.20;7.30;;;6.60;99.90;;;;;;4932326;29;20512;-78
2021/01/31 10:48:56;;;;;;;11.68;7.43;;;6.70;99.90;;;;;;4950222;29;20046;-82
2021/01/31 10:51:24;;;;;;;10.18;6.65;;;6.80;99.70;;;;;;4951208;29;20056;-83
2021/01/31 10:53:51;;;;;;;11.00;7.05;;;6.80;99.20;;;;;;4942943;29;20058;-79
2021/01/31 10:56:17;;;;;;;9.90;6.53;;;6.90;99.50;;;;;;4942112;29;20137;-78
2021/01/31 10:58:44;;;;;;;8.38;6.10;;;7.00;99.80;;;;;;4940260;29;20062;-78
2021/01/31 11:01:10;;;;;;;8.32;5.68;;;7.10;99.70;;;;;;4934518;29;20135;-78
2021/01/31 11:03:37;;;;;;;8.30;6.10;;;7.10;99.50;;;;;;4949936;29;20143;-79
2021/01/31 11:06:04;;;;;;;9.38;5.63;;;7.30;99.50;;;;;;4942647;29;20441;-80
2021/01/31 11:08:32;;;;;;;10.38;6.22;;;7.30;99.40;;;;;;4951521;29;20059;-82
2021/01/31 11:11:00;;;;;;;8.88;5.43;;;7.30;99.30;;;;;;4943161;29;20138;-80
2021/01/31 11:13:26;;;;;;;8.93;5.82;;;7.40;99.00;;;;;;4951491;29;20086;-82
2021/01/31 11:15:53;;;;;;;9.10;5.65;;;7.40;99.10;;;;;;4934871;29;20202;-84
2021/01/31 11:18:20;;;;;;;7.75;5.47;;;7.40;99.20;;;;;;4941692;29;20134;-84
2021/01/31 11:20:48;;;;;;;12.50;6.38;;;7.50;98.00;;;;;;4950849;29;20138;-83
2021/01/31 11:23:15;;;;;;;9.93;5.85;;;7.60;99.30;;;;;;4951701;29;20481;-83
2021/01/31 11:25:42;;;;;;;8.80;5.50;;;7.60;98.50;;;;;;4951996;29;20051;-83
2021/01/31 11:28:09;;;;;;;13.20;6.55;;;7.60;98.40;;;;;;4941355;29;20047;-79
2021/01/31 11:30:36;;;;;;;7.47;5.13;;;7.60;99.30;;;;;;4942829;29;20047;-83
2021/01/31 11:33:03;;;;;;;7.93;5.60;;;7.70;97.50;;;;;;4951407;29;20150;-79
2021/01/31 11:35:32;;;;;;;7.85;5.65;;;7.60;96.90;;;;;;4944094;29;20135;-85
2021/01/31 11:38:00;;;;;;;7.75;5.55;;;7.60;97.50;;;;;;4932659;29;20051;-81
2021/01/31 11:40:27;;;;;;;7.53;5.38;;;7.60;97.60;;;;;;4932194;29;20059;-81
2021/01/31 11:42:55;;;;;;;6.95;5.00;;;7.60;97.70;;;;;;4932638;29;20059;-81
2021/01/31 11:45:25;;;;;;;7.25;4.82;;;7.60;98.00;;;;;;4945209;29;20155;-81
2021/01/31 11:47:52;;;;;;;7.78;5.25;;;7.60;97.90;;;;;;4949109;29;20130;-81
2021/01/31 11:50:20;;;;;;;7.95;5.25;;;7.70;98.20;;;;;;4932563;29;20080;-81
2021/01/31 11:52:47;;;;;;;23.80;12.38;;;7.60;98.20;;;;;;4934511;29;20481;-81
2021/01/31 11:55:14;;;;;;;24.33;13.35;;;7.60;98.60;;;;;;4935784;29;20213;-80
2021/01/31 11:57:41;;;;;;;9.93;6.10;;;7.70;98.80;;;;;;4935839;29;20497;-81
2021/01/31 12:00:13;;;;;;;9.05;6.18;;;7.70;97.60;;;;;;4935635;29;20131;-81
2021/01/31 12:02:41;;;;;;;8.18;5.47;;;7.70;97.00;;;;;;4931377;29;20051;-82
2021/01/31 12:05:11;;;;;;;7.70;5.53;;;7.70;96.80;;;;;;4954554;29;20051;-81
2021/01/31 12:07:39;;;;;;;8.20;5.47;;;7.50;96.80;;;;;;4954273;29;20522;-77
2021/01/31 12:10:09;;;;;;;7.18;5.10;;;7.50;97.10;;;;;;4947810;29;20054;-77
2021/01/31 12:12:36;;;;;;;7.82;5.38;;;7.50;97.50;;;;;;4941684;29;20126;-76
2021/01/31 12:15:05;;;;;;;7.75;5.30;;;7.40;97.90;;;;;;4951773;29;20511;-76
2021/01/31 12:17:32;;;;;;;7.80;5.00;;;7.40;97.90;;;;;;4947170;29;20489;-77
2021/01/31 12:20:00;;;;;;;7.15;4.88;;;7.40;97.90;;;;;;4937468;29;20048;-75
2021/01/31 12:22:26;;;;;;;10.23;5.55;;;7.40;98.10;;;;;;4935769;29;20056;-77
2021/01/31 12:24:53;;;;;;;8.40;5.18;;;7.40;97.80;;;;;;4902611;29;20079;-77
2021/01/31 12:27:21;;;;;;;8.43;5.00;;;7.40;98.10;;;;;;4935214;29;20131;-77
2021/01/31 12:29:50;;;;;;;8.27;4.95;;;7.40;98.20;;;;;;4938877;28;20059;-77
2021/01/31 12:32:17;;;;;;;8.45;5.20;;;7.50;98.30;;;;;;4951906;29;20058;-77
2021/01/31 12:34:45;;;;;;;12.02;5.55;;;7.50;98.10;;;;;;4924020;29;20054;-79
2021/01/31 12:37:12;;;;;;;7.93;5.47;;;7.50;98.30;;;;;;4938889;29;20076;-77
2021/01/31 12:39:38;;;;;;;8.13;5.28;;;7.50;98.10;;;;;;4953462;29;20054;-77
2021/01/31 12:42:06;;;;;;;8.75;5.20;;;7.50;98.20;;;;;;4953734;29;20129;-77
2021/01/31 12:44:32;;;;;;;8.65;5.03;;;7.30;98.00;;;;;;4932306;29;20174;-78
2021/01/31 12:46:59;;;;;;;10.52;5.50;;;7.30;98.00;;;;;;4952439;29;20138;-77
2021/01/31 12:49:26;;;;;;;9.32;5.88;;;7.30;97.80;;;;;;4954032;29;20190;-77
2021/01/31 12:51:53;;;;;;;8.23;4.68;;;7.20;97.80;;;;;;4953835;29;20054;-78
2021/01/31 12:54:23;;;;;;;10.13;5.07;;;7.20;97.90;;;;;;4938386;29;20134;-77
2021/01/31 12:56:49;;;;;;;9.77;5.30;;;7.30;97.90;;;;;;4935445;29;20505;-75
2021/01/31 12:59:16;;;;;;;9.60;5.32;;;7.40;97.60;;;;;;4934302;29;20134;-76
2021/01/31 13:01:42;;;;;;;10.95;5.70;;;7.40;97.80;;;;;;4934597;29;20134;-76
2021/01/31 13:04:09;;;;;;;10.80;5.28;;;7.30;97.50;;;;;;4935943;29;20078;-76
2021/01/31 13:06:36;;;;;;;8.13;5.20;;;7.20;97.80;;;;;;4951622;29;20170;-77
2021/01/31 13:09:04;;;;;;;9.82;5.43;;;7.30;97.90;;;;;;4952085;29;20055;-76
2021/01/31 13:11:30;;;;;;;9.52;5.25;;;7.30;97.80;;;;;;4947858;28;20105;-78
2021/01/31 13:13:57;;;;;;;10.68;5.47;;;7.20;97.90;;;;;;4935060;29;20122;-75
2021/01/31 13:16:24;;;;;;;11.23;5.88;;;7.30;98.00;;;;;;4944244;29;20071;-76
2021/01/31 13:18:51;;;;;;;11.07;5.72;;;7.30;97.60;;;;;;4949211;29;20122;-83
2021/01/31 13:21:18;;;;;;;10.27;5.75;;;7.30;97.50;;;;;;4953584;29;20515;-84
2021/01/31 13:23:44;;;;;;;10.15;5.95;;;7.40;97.70;;;;;;4953866;29;20051;-85
2021/01/31 13:26:13;;;;;;;11.77;5.93;;;7.40;97.70;;;;;;4951770;29;20057;-84
2021/01/31 13:28:39;;;;;;;11.52;6.03;;;7.40;97.50;;;;;;4950953;29;20051;-84
2021/01/31 13:31:06;;;;;;;9.43;5.72;;;7.40;97.60;;;;;;4951092;29;20138;-84
2021/01/31 13:33:33;;;;;;;9.93;5.80;;;7.50;97.30;;;;;;4952828;29;20146;-85
2021/01/31 13:35:59;;;;;;;10.23;6.07;;;7.40;97.40;;;;;;4942496;29;20183;-84